sensor_id;sensor_type;location;lat;lon;timestamp;P1;durP1;ratioP1;P2;durP2;ratioP2
72590;SDS011;60625;51.212;5.952;2022-12-18T00:00:43;28.30;;;11.10;;
72590;SDS011;60625;51.212;5.952;2022-12-18T00:05:51;23.40;;;8.90;;
72590;SDS011;60625;51.212;5.952;2022-12-18T00:10:53;23.00;;;9.40;;
72590;SDS011;60625;51.212;5.952;2022-12-18T00:15:53;23.60;;;9.30;;
72590;SDS011;60625;51.212;5.952;2022-12-18T00:20:58;25.20;;;10.00;;
72590;SDS011;60625;51.212;5.952;2022-12-18T00:26:01;26.10;;;9.80;;
72590;SDS011;60625;51.212;5.952;2022-12-18T00:31:10;26.20;;;9.20;;
72590;SDS011;60625;51.212;5.952;2022-12-18T00:36:18;41.20;;;16.90;;
72590;SDS011;60625;51.212;5.952;2022-12-18T00:41:20;25.00;;;10.70;;
72590;SDS011;60625;51.212;5.952;2022-12-18T00:46:40;23.30;;;9.40;;
72590;SDS011;60625;51.212;5.952;2022-12-18T00:51:42;23.80;;;10.80;;
72590;SDS011;60625;51.212;5.952;2022-12-18T00:56:42;22.30;;;9.30;;
72590;SDS011;60625;51.212;5.952;2022-12-18T01:01:44;23.20;;;8.80;;
72590;SDS011;60625;51.212;5.952;2022-12-18T01:06:45;23.70;;;9.40;;
72590;SDS011;60625;51.212;5.952;2022-12-18T01:11:46;23.70;;;8.30;;
72590;SDS011;60625;51.212;5.952;2022-12-18T01:16:46;26.30;;;9.80;;
72590;SDS011;60625;51.212;5.952;2022-12-18T01:21:47;26.30;;;9.60;;
72590;SDS011;60625;51.212;5.952;2022-12-18T01:26:47;21.50;;;8.80;;
72590;SDS011;60625;51.212;5.952;2022-12-18T01:31:48;20.60;;;8.30;;
72590;SDS011;60625;51.212;5.952;2022-12-18T01:36:48;22.30;;;8.90;;
72590;SDS011;60625;51.212;5.952;2022-12-18T01:41:49;24.60;;;9.50;;
72590;SDS011;60625;51.212;5.952;2022-12-18T01:47:01;24.00;;;8.60;;
72590;SDS011;60625;51.212;5.952;2022-12-18T01:52:02;20.40;;;8.70;;
72590;SDS011;60625;51.212;5.952;2022-12-18T01:57:03;21.50;;;8.10;;
72590;SDS011;60625;51.212;5.952;2022-12-18T02:02:03;20.00;;;8.20;;
72590;SDS011;60625;51.212;5.952;2022-12-18T02:07:17;19.10;;;8.30;;
72590;SDS011;60625;51.212;5.952;2022-12-18T02:13:05;19.10;;;6.90;;
72590;SDS011;60625;51.212;5.952;2022-12-18T02:18:16;20.80;;;7.50;;
72590;SDS011;60625;51.212;5.952;2022-12-18T02:23:37;31.30;;;11.50;;
72590;SDS011;60625;51.212;5.952;2022-12-18T02:28:47;26.90;;;10.00;;
72590;SDS011;60625;51.212;5.952;2022-12-18T02:33:54;19.20;;;9.00;;
72590;SDS011;60625;51.212;5.952;2022-12-18T02:38:58;25.90;;;9.50;;
72590;SDS011;60625;51.212;5.952;2022-12-18T02:44:07;21.70;;;8.80;;
72590;SDS011;60625;51.212;5.952;2022-12-18T02:49:26;18.50;;;7.10;;
72590;SDS011;60625;51.212;5.952;2022-12-18T02:54:50;23.20;;;8.40;;
72590;SDS011;60625;51.212;5.952;2022-12-18T03:00:16;25.10;;;8.50;;
72590;SDS011;60625;51.212;5.952;2022-12-18T03:05:31;22.90;;;8.10;;
72590;SDS011;60625;51.212;5.952;2022-12-18T03:10:44;21.40;;;7.10;;
72590;SDS011;60625;51.212;5.952;2022-12-18T03:15:50;23.00;;;8.30;;
72590;SDS011;60625;51.212;5.952;2022-12-18T03:20:56;24.40;;;7.50;;
72590;SDS011;60625;51.212;5.952;2022-12-18T03:26:01;22.60;;;8.10;;
72590;SDS011;60625;51.212;5.952;2022-12-18T03:31:08;18.60;;;8.20;;
72590;SDS011;60625;51.212;5.952;2022-12-18T03:36:10;26.70;;;8.30;;
72590;SDS011;60625;51.212;5.952;2022-12-18T03:41:33;19.70;;;8.20;;
72590;SDS011;60625;51.212;5.952;2022-12-18T03:53:03;21.50;;;8.90;;
72590;SDS011;60625;51.212;5.952;2022-12-18T03:58:07;19.80;;;7.30;;
72590;SDS011;60625;51.212;5.952;2022-12-18T04:03:28;20.70;;;7.60;;
72590;SDS011;60625;51.212;5.952;2022-12-18T04:08:30;18.80;;;6.90;;
72590;SDS011;60625;51.212;5.952;2022-12-18T04:13:38;17.00;;;7.00;;
72590;SDS011;60625;51.212;5.952;2022-12-18T04:18:47;21.40;;;7.90;;
72590;SDS011;60625;51.212;5.952;2022-12-18T04:23:48;28.60;;;10.90;;
72590;SDS011;60625;51.212;5.952;2022-12-18T04:28:50;23.10;;;8.90;;
72590;SDS011;60625;51.212;5.952;2022-12-18T04:33:51;24.80;;;8.00;;
72590;SDS011;60625;51.212;5.952;2022-12-18T04:38:51;20.50;;;6.70;;
72590;SDS011;60625;51.212;5.952;2022-12-18T04:43:52;22.70;;;8.40;;
72590;SDS011;60625;51.212;5.952;2022-12-18T04:48:53;27.40;;;7.90;;
72590;SDS011;60625;51.212;5.952;2022-12-18T04:53:54;21.00;;;7.90;;
72590;SDS011;60625;51.212;5.952;2022-12-18T04:58:54;16.80;;;6.00;;
72590;SDS011;60625;51.212;5.952;2022-12-18T05:03:54;16.20;;;6.60;;
72590;SDS011;60625;51.212;5.952;2022-12-18T05:08:55;30.50;;;11.20;;
72590;SDS011;60625;51.212;5.952;2022-12-18T05:13:55;22.10;;;8.90;;
72590;SDS011;60625;51.212;5.952;2022-12-18T05:18:56;23.40;;;8.50;;
72590;SDS011;60625;51.212;5.952;2022-12-18T05:23:56;22.60;;;8.50;;
72590;SDS011;60625;51.212;5.952;2022-12-18T05:28:57;17.20;;;6.60;;
72590;SDS011;60625;51.212;5.952;2022-12-18T05:33:57;23.70;;;8.30;;
72590;SDS011;60625;51.212;5.952;2022-12-18T05:38:58;24.00;;;8.40;;
72590;SDS011;60625;51.212;5.952;2022-12-18T05:43:59;19.80;;;8.60;;
72590;SDS011;60625;51.212;5.952;2022-12-18T05:49:00;21.70;;;9.00;;
72590;SDS011;60625;51.212;5.952;2022-12-18T05:54:01;25.20;;;10.30;;
72590;SDS011;60625;51.212;5.952;2022-12-18T05:59:01;19.40;;;7.70;;
72590;SDS011;60625;51.212;5.952;2022-12-18T06:04:02;23.90;;;8.80;;
72590;SDS011;60625;51.212;5.952;2022-12-18T06:09:03;21.50;;;8.60;;
72590;SDS011;60625;51.212;5.952;2022-12-18T06:14:09;20.30;;;8.80;;
72590;SDS011;60625;51.212;5.952;2022-12-18T06:19:14;22.60;;;10.60;;
72590;SDS011;60625;51.212;5.952;2022-12-18T06:24:16;27.40;;;9.20;;
72590;SDS011;60625;51.212;5.952;2022-12-18T06:29:16;19.80;;;8.30;;
72590;SDS011;60625;51.212;5.952;2022-12-18T06:34:16;24.90;;;9.30;;
72590;SDS011;60625;51.212;5.952;2022-12-18T06:39:17;16.30;;;6.80;;
72590;SDS011;60625;51.212;5.952;2022-12-18T06:44:17;22.40;;;8.50;;
72590;SDS011;60625;51.212;5.952;2022-12-18T06:49:18;22.30;;;8.30;;
72590;SDS011;60625;51.212;5.952;2022-12-18T06:54:19;21.90;;;8.60;;
72590;SDS011;60625;51.212;5.952;2022-12-18T06:59:19;48.40;;;17.40;;
72590;SDS011;60625;51.212;5.952;2022-12-18T07:04:20;31.40;;;12.70;;
72590;SDS011;60625;51.212;5.952;2022-12-18T07:09:20;31.30;;;13.20;;
72590;SDS011;60625;51.212;5.952;2022-12-18T07:14:21;35.20;;;13.10;;
72590;SDS011;60625;51.212;5.952;2022-12-18T07:19:21;31.10;;;13.70;;
72590;SDS011;60625;51.212;5.952;2022-12-18T07:24:22;26.20;;;10.30;;
72590;SDS011;60625;51.212;5.952;2022-12-18T07:29:22;32.70;;;14.20;;
72590;SDS011;60625;51.212;5.952;2022-12-18T07:34:23;36.20;;;14.80;;
72590;SDS011;60625;51.212;5.952;2022-12-18T07:39:23;63.40;;;25.40;;
72590;SDS011;60625;51.212;5.952;2022-12-18T07:44:23;43.70;;;19.70;;
72590;SDS011;60625;51.212;5.952;2022-12-18T07:49:24;35.00;;;14.20;;
72590;SDS011;60625;51.212;5.952;2022-12-18T07:54:24;25.80;;;11.30;;
72590;SDS011;60625;51.212;5.952;2022-12-18T07:59:25;30.20;;;10.80;;
72590;SDS011;60625;51.212;5.952;2022-12-18T08:04:26;28.20;;;10.90;;
72590;SDS011;60625;51.212;5.952;2022-12-18T08:09:26;27.10;;;9.60;;
72590;SDS011;60625;51.212;5.952;2022-12-18T08:14:26;21.00;;;8.10;;
72590;SDS011;60625;51.212;5.952;2022-12-18T08:19:27;15.70;;;6.70;;
72590;SDS011;60625;51.212;5.952;2022-12-18T08:24:28;17.70;;;6.60;;
72590;SDS011;60625;51.212;5.952;2022-12-18T08:29:28;23.90;;;9.70;;
72590;SDS011;60625;51.212;5.952;2022-12-18T08:34:30;21.10;;;7.30;;
72590;SDS011;60625;51.212;5.952;2022-12-18T08:39:30;19.30;;;7.90;;
72590;SDS011;60625;51.212;5.952;2022-12-18T08:44:31;27.60;;;10.60;;
72590;SDS011;60625;51.212;5.952;2022-12-18T08:49:38;24.60;;;10.40;;
72590;SDS011;60625;51.212;5.952;2022-12-18T08:54:39;27.40;;;10.60;;
72590;SDS011;60625;51.212;5.952;2022-12-18T08:59:39;27.70;;;11.70;;
72590;SDS011;60625;51.212;5.952;2022-12-18T09:04:40;31.20;;;13.80;;
72590;SDS011;60625;51.212;5.952;2022-12-18T09:09:40;30.00;;;12.70;;
72590;SDS011;60625;51.212;5.952;2022-12-18T09:14:41;20.20;;;8.60;;
72590;SDS011;60625;51.212;5.952;2022-12-18T09:19:41;34.20;;;11.60;;
72590;SDS011;60625;51.212;5.952;2022-12-18T09:24:42;24.00;;;9.10;;
72590;SDS011;60625;51.212;5.952;2022-12-18T09:29:42;24.20;;;10.10;;
72590;SDS011;60625;51.212;5.952;2022-12-18T09:34:43;21.70;;;10.00;;
72590;SDS011;60625;51.212;5.952;2022-12-18T09:39:43;20.70;;;9.20;;
72590;SDS011;60625;51.212;5.952;2022-12-18T09:44:46;26.80;;;11.30;;
72590;SDS011;60625;51.212;5.952;2022-12-18T09:49:53;24.40;;;10.30;;
72590;SDS011;60625;51.212;5.952;2022-12-18T10:00:23;16.10;;;8.70;;
72590;SDS011;60625;51.212;5.952;2022-12-18T10:17:16;25.80;;;9.30;;
72590;SDS011;60625;51.212;5.952;2022-12-18T10:28:13;21.50;;;8.90;;
72590;SDS011;60625;51.212;5.952;2022-12-18T10:33:17;20.00;;;8.30;;
72590;SDS011;60625;51.212;5.952;2022-12-18T10:38:23;24.50;;;10.00;;
72590;SDS011;60625;51.212;5.952;2022-12-18T10:43:36;24.50;;;9.20;;
72590;SDS011;60625;51.212;5.952;2022-12-18T10:48:49;27.90;;;11.40;;
72590;SDS011;60625;51.212;5.952;2022-12-18T10:53:58;29.80;;;13.40;;
72590;SDS011;60625;51.212;5.952;2022-12-18T10:59:05;23.40;;;10.20;;
72590;SDS011;60625;51.212;5.952;2022-12-18T11:04:08;25.20;;;10.30;;
72590;SDS011;60625;51.212;5.952;2022-12-18T11:09:20;25.60;;;9.80;;
72590;SDS011;60625;51.212;5.952;2022-12-18T11:14:31;25.60;;;10.70;;
72590;SDS011;60625;51.212;5.952;2022-12-18T11:19:36;26.50;;;11.10;;
72590;SDS011;60625;51.212;5.952;2022-12-18T11:24:38;22.60;;;10.70;;
72590;SDS011;60625;51.212;5.952;2022-12-18T11:29:40;32.00;;;12.90;;
72590;SDS011;60625;51.212;5.952;2022-12-18T11:34:49;23.30;;;11.20;;
72590;SDS011;60625;51.212;5.952;2022-12-18T11:39:56;26.60;;;10.90;;
72590;SDS011;60625;51.212;5.952;2022-12-18T11:45:20;23.30;;;11.10;;
72590;SDS011;60625;51.212;5.952;2022-12-18T11:50:34;25.50;;;12.80;;
72590;SDS011;60625;51.212;5.952;2022-12-18T12:01:46;21.20;;;10.80;;
72590;SDS011;60625;51.212;5.952;2022-12-18T12:12:43;26.30;;;10.70;;
72590;SDS011;60625;51.212;5.952;2022-12-18T12:23:37;24.80;;;10.30;;
72590;SDS011;60625;51.212;5.952;2022-12-18T12:28:52;26.00;;;11.80;;
72590;SDS011;60625;51.212;5.952;2022-12-18T12:34:08;21.00;;;9.40;;
72590;SDS011;60625;51.212;5.952;2022-12-18T12:39:36;27.10;;;11.80;;
72590;SDS011;60625;51.212;5.952;2022-12-18T12:44:45;23.20;;;12.00;;
72590;SDS011;60625;51.212;5.952;2022-12-18T12:49:49;25.60;;;12.80;;
72590;SDS011;60625;51.212;5.952;2022-12-18T12:54:51;22.50;;;10.60;;
72590;SDS011;60625;51.212;5.952;2022-12-18T13:00:06;26.20;;;13.10;;
72590;SDS011;60625;51.212;5.952;2022-12-18T13:05:24;24.00;;;11.30;;
72590;SDS011;60625;51.212;5.952;2022-12-18T13:10:40;25.30;;;11.20;;
72590;SDS011;60625;51.212;5.952;2022-12-18T13:15:43;24.70;;;10.90;;
72590;SDS011;60625;51.212;5.952;2022-12-18T13:21:17;23.80;;;10.90;;
72590;SDS011;60625;51.212;5.952;2022-12-18T13:26:29;24.40;;;11.30;;
72590;SDS011;60625;51.212;5.952;2022-12-18T13:36:41;28.30;;;11.80;;
72590;SDS011;60625;51.212;5.952;2022-12-18T13:41:43;24.70;;;10.90;;
72590;SDS011;60625;51.212;5.952;2022-12-18T13:46:46;24.40;;;9.80;;
72590;SDS011;60625;51.212;5.952;2022-12-18T13:51:53;25.50;;;11.60;;
72590;SDS011;60625;51.212;5.952;2022-12-18T13:56:55;25.10;;;12.00;;
72590;SDS011;60625;51.212;5.952;2022-12-18T14:01:58;23.10;;;11.50;;
72590;SDS011;60625;51.212;5.952;2022-12-18T14:07:09;24.10;;;11.60;;
72590;SDS011;60625;51.212;5.952;2022-12-18T14:12:16;23.80;;;12.00;;
72590;SDS011;60625;51.212;5.952;2022-12-18T14:17:37;23.60;;;10.90;;
72590;SDS011;60625;51.212;5.952;2022-12-18T14:22:43;26.40;;;12.00;;
72590;SDS011;60625;51.212;5.952;2022-12-18T14:27:52;27.10;;;11.90;;
72590;SDS011;60625;51.212;5.952;2022-12-18T14:38:28;24.80;;;11.00;;
72590;SDS011;60625;51.212;5.952;2022-12-18T14:43:41;21.70;;;10.40;;
72590;SDS011;60625;51.212;5.952;2022-12-18T14:48:47;23.60;;;10.50;;
72590;SDS011;60625;51.212;5.952;2022-12-18T14:53:59;26.20;;;11.40;;
72590;SDS011;60625;51.212;5.952;2022-12-18T14:59:15;23.50;;;11.50;;
72590;SDS011;60625;51.212;5.952;2022-12-18T15:04:37;26.40;;;12.00;;
72590;SDS011;60625;51.212;5.952;2022-12-18T15:10:21;26.20;;;11.70;;
72590;SDS011;60625;51.212;5.952;2022-12-18T15:20:40;27.00;;;10.60;;
72590;SDS011;60625;51.212;5.952;2022-12-18T15:25:46;23.90;;;10.10;;
72590;SDS011;60625;51.212;5.952;2022-12-18T15:31:02;24.90;;;10.70;;
72590;SDS011;60625;51.212;5.952;2022-12-18T15:36:09;25.80;;;11.50;;
72590;SDS011;60625;51.212;5.952;2022-12-18T15:41:13;27.70;;;9.90;;
72590;SDS011;60625;51.212;5.952;2022-12-18T15:46:17;26.70;;;12.00;;
72590;SDS011;60625;51.212;5.952;2022-12-18T15:51:20;25.50;;;10.30;;
72590;SDS011;60625;51.212;5.952;2022-12-18T15:56:23;26.80;;;12.40;;
72590;SDS011;60625;51.212;5.952;2022-12-18T16:01:45;28.40;;;11.70;;
72590;SDS011;60625;51.212;5.952;2022-12-18T16:06:48;19.50;;;9.30;;
72590;SDS011;60625;51.212;5.952;2022-12-18T16:11:49;26.60;;;13.30;;
72590;SDS011;60625;51.212;5.952;2022-12-18T16:16:52;30.30;;;12.40;;
72590;SDS011;60625;51.212;5.952;2022-12-18T16:21:58;29.00;;;12.10;;
72590;SDS011;60625;51.212;5.952;2022-12-18T16:27:00;25.90;;;10.20;;
72590;SDS011;60625;51.212;5.952;2022-12-18T16:32:00;19.50;;;9.30;;
72590;SDS011;60625;51.212;5.952;2022-12-18T16:37:04;30.10;;;13.30;;
72590;SDS011;60625;51.212;5.952;2022-12-18T16:42:16;29.80;;;12.90;;
72590;SDS011;60625;51.212;5.952;2022-12-18T16:47:19;26.50;;;12.00;;
72590;SDS011;60625;51.212;5.952;2022-12-18T16:52:19;27.50;;;12.00;;
72590;SDS011;60625;51.212;5.952;2022-12-18T16:57:20;27.90;;;12.10;;
72590;SDS011;60625;51.212;5.952;2022-12-18T17:02:23;28.60;;;12.00;;
72590;SDS011;60625;51.212;5.952;2022-12-18T17:07:26;26.70;;;9.70;;
72590;SDS011;60625;51.212;5.952;2022-12-18T17:12:27;31.80;;;12.40;;
72590;SDS011;60625;51.212;5.952;2022-12-18T17:17:27;34.40;;;14.60;;
72590;SDS011;60625;51.212;5.952;2022-12-18T17:22:28;26.40;;;12.10;;
72590;SDS011;60625;51.212;5.952;2022-12-18T17:27:28;26.50;;;12.60;;
72590;SDS011;60625;51.212;5.952;2022-12-18T17:32:29;28.60;;;12.00;;
72590;SDS011;60625;51.212;5.952;2022-12-18T17:37:29;29.30;;;13.60;;
72590;SDS011;60625;51.212;5.952;2022-12-18T17:42:30;21.30;;;10.10;;
72590;SDS011;60625;51.212;5.952;2022-12-18T17:47:30;23.70;;;9.20;;
72590;SDS011;60625;51.212;5.952;2022-12-18T17:52:30;29.20;;;12.90;;
72590;SDS011;60625;51.212;5.952;2022-12-18T17:57:32;39.60;;;13.80;;
72590;SDS011;60625;51.212;5.952;2022-12-18T18:02:33;27.40;;;12.30;;
72590;SDS011;60625;51.212;5.952;2022-12-18T18:07:33;31.40;;;13.80;;
72590;SDS011;60625;51.212;5.952;2022-12-18T18:12:35;31.60;;;13.00;;
72590;SDS011;60625;51.212;5.952;2022-12-18T18:17:54;26.00;;;11.90;;
72590;SDS011;60625;51.212;5.952;2022-12-18T18:22:55;29.70;;;12.40;;
72590;SDS011;60625;51.212;5.952;2022-12-18T18:27:55;27.10;;;10.80;;
72590;SDS011;60625;51.212;5.952;2022-12-18T18:32:56;32.90;;;14.00;;
72590;SDS011;60625;51.212;5.952;2022-12-18T18:37:57;31.10;;;13.60;;
72590;SDS011;60625;51.212;5.952;2022-12-18T18:42:57;31.00;;;13.50;;
72590;SDS011;60625;51.212;5.952;2022-12-18T18:47:57;31.80;;;12.50;;
72590;SDS011;60625;51.212;5.952;2022-12-18T18:52:58;26.30;;;12.60;;
72590;SDS011;60625;51.212;5.952;2022-12-18T18:57:58;29.00;;;12.80;;
72590;SDS011;60625;51.212;5.952;2022-12-18T19:02:59;23.70;;;9.40;;
72590;SDS011;60625;51.212;5.952;2022-12-18T19:07:59;30.70;;;13.20;;
72590;SDS011;60625;51.212;5.952;2022-12-18T19:13:00;31.00;;;12.30;;
72590;SDS011;60625;51.212;5.952;2022-12-18T19:18:19;27.80;;;12.00;;
72590;SDS011;60625;51.212;5.952;2022-12-18T19:23:20;30.00;;;12.60;;
72590;SDS011;60625;51.212;5.952;2022-12-18T19:28:21;27.70;;;13.40;;
72590;SDS011;60625;51.212;5.952;2022-12-18T19:33:27;31.00;;;12.80;;
72590;SDS011;60625;51.212;5.952;2022-12-18T19:38:29;29.40;;;15.40;;
72590;SDS011;60625;51.212;5.952;2022-12-18T19:43:29;36.50;;;14.20;;
72590;SDS011;60625;51.212;5.952;2022-12-18T19:48:31;34.50;;;14.20;;
72590;SDS011;60625;51.212;5.952;2022-12-18T19:53:32;28.50;;;13.50;;
72590;SDS011;60625;51.212;5.952;2022-12-18T19:58:32;34.00;;;14.40;;
72590;SDS011;60625;51.212;5.952;2022-12-18T20:03:33;30.00;;;12.50;;
72590;SDS011;60625;51.212;5.952;2022-12-18T20:08:34;30.50;;;15.30;;
72590;SDS011;60625;51.212;5.952;2022-12-18T20:13:35;28.80;;;12.20;;
72590;SDS011;60625;51.212;5.952;2022-12-18T20:18:35;32.50;;;13.20;;
72590;SDS011;60625;51.212;5.952;2022-12-18T20:23:36;33.50;;;14.70;;
72590;SDS011;60625;51.212;5.952;2022-12-18T20:28:36;33.10;;;15.10;;
72590;SDS011;60625;51.212;5.952;2022-12-18T20:33:37;34.50;;;15.00;;
72590;SDS011;60625;51.212;5.952;2022-12-18T20:38:37;29.30;;;14.00;;
72590;SDS011;60625;51.212;5.952;2022-12-18T20:43:38;30.50;;;13.40;;
72590;SDS011;60625;51.212;5.952;2022-12-18T20:48:39;40.50;;;15.50;;
72590;SDS011;60625;51.212;5.952;2022-12-18T20:53:41;30.90;;;13.60;;
72590;SDS011;60625;51.212;5.952;2022-12-18T20:58:42;37.10;;;15.90;;
72590;SDS011;60625;51.212;5.952;2022-12-18T21:03:43;32.30;;;15.30;;
72590;SDS011;60625;51.212;5.952;2022-12-18T21:08:45;34.90;;;15.20;;
72590;SDS011;60625;51.212;5.952;2022-12-18T21:13:46;38.80;;;16.20;;
72590;SDS011;60625;51.212;5.952;2022-12-18T21:18:46;32.40;;;15.70;;
72590;SDS011;60625;51.212;5.952;2022-12-18T21:23:46;32.30;;;15.20;;
72590;SDS011;60625;51.212;5.952;2022-12-18T21:28:52;36.90;;;17.10;;
72590;SDS011;60625;51.212;5.952;2022-12-18T21:33:55;34.60;;;16.70;;
72590;SDS011;60625;51.212;5.952;2022-12-18T21:38:57;32.10;;;14.60;;
72590;SDS011;60625;51.212;5.952;2022-12-18T21:43:57;34.30;;;15.20;;
72590;SDS011;60625;51.212;5.952;2022-12-18T21:49:08;36.80;;;15.00;;
72590;SDS011;60625;51.212;5.952;2022-12-18T21:54:09;44.90;;;16.20;;
72590;SDS011;60625;51.212;5.952;2022-12-18T21:59:16;39.60;;;16.50;;
72590;SDS011;60625;51.212;5.952;2022-12-18T22:04:19;34.70;;;15.50;;
72590;SDS011;60625;51.212;5.952;2022-12-18T22:09:22;34.00;;;14.40;;
72590;SDS011;60625;51.212;5.952;2022-12-18T22:14:24;41.10;;;17.40;;
72590;SDS011;60625;51.212;5.952;2022-12-18T22:19:24;34.00;;;15.50;;
72590;SDS011;60625;51.212;5.952;2022-12-18T22:24:25;36.90;;;16.70;;
72590;SDS011;60625;51.212;5.952;2022-12-18T22:29:26;37.90;;;17.20;;
72590;SDS011;60625;51.212;5.952;2022-12-18T22:34:45;33.80;;;16.00;;
72590;SDS011;60625;51.212;5.952;2022-12-18T22:39:46;30.20;;;12.50;;
72590;SDS011;60625;51.212;5.952;2022-12-18T22:44:46;38.20;;;16.70;;
72590;SDS011;60625;51.212;5.952;2022-12-18T22:49:46;38.60;;;16.60;;
72590;SDS011;60625;51.212;5.952;2022-12-18T22:54:47;37.40;;;16.30;;
72590;SDS011;60625;51.212;5.952;2022-12-18T22:59:48;38.80;;;16.00;;
72590;SDS011;60625;51.212;5.952;2022-12-18T23:04:49;40.70;;;18.00;;
72590;SDS011;60625;51.212;5.952;2022-12-18T23:09:51;43.50;;;18.20;;
72590;SDS011;60625;51.212;5.952;2022-12-18T23:14:51;37.10;;;15.70;;
72590;SDS011;60625;51.212;5.952;2022-12-18T23:19:51;39.50;;;16.80;;
72590;SDS011;60625;51.212;5.952;2022-12-18T23:24:52;34.50;;;15.40;;
72590;SDS011;60625;51.212;5.952;2022-12-18T23:29:52;44.90;;;18.20;;
72590;SDS011;60625;51.212;5.952;2022-12-18T23:34:53;36.40;;;16.90;;
72590;SDS011;60625;51.212;5.952;2022-12-18T23:39:53;38.30;;;16.80;;
72590;SDS011;60625;51.212;5.952;2022-12-18T23:44:54;35.50;;;15.60;;
72590;SDS011;60625;51.212;5.952;2022-12-18T23:49:54;32.00;;;14.40;;
72590;SDS011;60625;51.212;5.952;2022-12-18T23:54:54;45.60;;;19.30;;
72590;SDS011;60625;51.212;5.952;2022-12-18T23:59:55;40.30;;;18.00;;
